Time;durP1;ratioP1;P1;durP2;ratioP2;P2;SDS_P1;SDS_P2;PMS_P1;PMS_P2;Temp;Humidity;BMP_temperature;BMP_pressure;BME280_temperature;BME280_humidity;BME280_pressure;Samples;Min_cycle;Max_cycle;Signal;HPM_P1;HPM_P2
2023/05/15 00:00:05;;;;;;;4.57;2.92;;;16.40;99.90;;;;;;5089618;28;20032;-46
2023/05/15 00:02:33;;;;;;;5.47;2.58;;;16.30;99.90;;;;;;5094119;28;20031;-44
2023/05/15 00:04:59;;;;;;;7.55;3.45;;;16.30;99.90;;;;;;5088605;28;20040;-46
2023/05/15 00:07:25;;;;;;;7.43;3.30;;;16.40;99.90;;;;;;5101061;28;20064;-45
2023/05/15 00:09:50;;;;;;;5.45;3.42;;;16.40;99.90;;;;;;5090444;28;20471;-47
2023/05/15 00:12:17;;;;;;;4.55;2.85;;;16.40;99.90;;;;;;5093625;28;20391;-45
2023/05/15 00:14:43;;;;;;;9.57;3.08;;;16.50;99.90;;;;;;5088768;28;20398;-46
2023/05/15 00:17:08;;;;;;;5.07;2.97;;;16.50;99.90;;;;;;5098680;28;20035;-46
2023/05/15 00:19:34;;;;;;;8.82;3.40;;;16.60;99.90;;;;;;5090142;28;20044;-47
2023/05/15 00:22:00;;;;;;;5.07;2.35;;;16.60;99.90;;;;;;5099072;28;20463;-47
2023/05/15 00:24:26;;;;;;;6.15;3.08;;;16.70;99.90;;;;;;5050837;28;20040;-46
2023/05/15 00:26:51;;;;;;;4.40;2.63;;;16.60;99.90;;;;;;5088392;28;20443;-45
2023/05/15 00:29:17;;;;;;;4.90;3.50;;;16.60;99.90;;;;;;5076418;28;20049;-46
2023/05/15 00:31:43;;;;;;;4.75;3.22;;;16.70;99.90;;;;;;5091145;28;20024;-45
2023/05/15 00:34:08;;;;;;;9.20;3.22;;;16.80;99.90;;;;;;5040481;28;20123;-44
2023/05/15 00:36:34;;;;;;;4.32;2.75;;;16.80;99.90;;;;;;5095201;28;20097;-46
2023/05/15 00:39:00;;;;;;;5.38;2.80;;;16.90;99.90;;;;;;5089501;28;20039;-45
2023/05/15 00:41:27;;;;;;;6.55;3.05;;;16.90;99.90;;;;;;5099324;28;20059;-47
2023/05/15 00:43:55;;;;;;;6.18;2.95;;;17.00;99.90;;;;;;5089921;28;20036;-46
2023/05/15 00:46:21;;;;;;;3.80;2.58;;;17.00;99.90;;;;;;5077085;28;20151;-47
2023/05/15 00:48:49;;;;;;;6.43;3.03;;;17.10;99.90;;;;;;5099231;28;20052;-46
2023/05/15 00:51:16;;;;;;;7.78;3.45;;;17.10;99.90;;;;;;5087682;28;20451;-47
2023/05/15 00:53:43;;;;;;;5.35;3.40;;;17.20;99.90;;;;;;5080789;28;20050;-47
2023/05/15 00:56:11;;;;;;;6.25;3.25;;;17.30;99.90;;;;;;5093876;28;20068;-46
2023/05/15 00:58:37;;;;;;;4.88;2.08;;;17.50;99.90;;;;;;5090770;28;20084;-47
2023/05/15 01:01:03;;;;;;;6.38;3.30;;;17.50;99.90;;;;;;5093027;28;20023;-47
2023/05/15 01:03:29;;;;;;;7.22;3.05;;;17.40;99.90;;;;;;5092013;28;20093;-46
2023/05/15 01:05:55;;;;;;;6.68;3.17;;;17.40;99.90;;;;;;5092875;28;20036;-45
2023/05/15 01:08:44;;;;;;;7.00;3.10;;;17.40;99.90;;;;;;5073313;28;20044;-45
2023/05/15 01:11:12;;;;;;;7.13;3.50;;;17.40;99.90;;;;;;5089951;28;20115;-45
2023/05/15 01:13:37;;;;;;;6.97;3.22;;;17.40;99.90;;;;;;5088678;28;20039;-44
2023/05/15 01:16:05;;;;;;;9.93;3.75;;;17.30;99.90;;;;;;5091586;28;20122;-45
2023/05/15 01:18:31;;;;;;;5.63;3.90;;;17.20;99.90;;;;;;5070724;28;20135;-47
2023/05/15 01:21:03;;;;;;;6.80;4.60;;;;;;;;;;5073946;28;20060;-48
2023/05/15 01:23:29;;;;;;;6.82;4.40;;;;;;;;;;5092285;28;20032;-45
2023/05/15 01:26:14;;;;;;;7.65;5.22;;;;;;;;;;5090068;28;20499;-45
2023/05/15 01:28:45;;;;;;;9.45;5.60;;;;;;;;;;5088682;28;20048;-46
2023/05/15 01:31:15;;;;;;;6.68;4.38;;;;;;;;;;5090612;28;20035;-45
2023/05/15 01:33:43;;;;;;;7.53;5.13;;;;;;;;;;5090137;28;20040;-47
2023/05/15 01:36:15;;;;;;;5.93;3.83;;;16.60;99.90;;;;;;5075227;28;20037;-46
2023/05/15 01:38:43;;;;;;;5.93;3.30;;;16.40;99.90;;;;;;5088010;28;20089;-44
2023/05/15 01:41:21;;;;;;;7.03;2.63;;;16.30;99.90;;;;;;5090345;28;20024;-44
2023/05/15 01:43:54;;;;;;;2.58;2.35;;;16.20;99.90;;;;;;5092101;28;20028;-46
2023/05/15 01:46:22;;;;;;;2.33;1.40;;;16.20;99.90;;;;;;5094136;28;20028;-44
2023/05/15 01:48:49;;;;;;;3.20;2.15;;;15.90;99.90;;;;;;5097052;28;20087;-47
2023/05/15 01:51:16;;;;;;;2.85;1.90;;;15.90;99.90;;;;;;5089136;28;20045;-47
2023/05/15 01:53:44;;;;;;;1.85;1.48;;;16.00;99.90;;;;;;5063218;28;20390;-45
2023/05/15 01:56:13;;;;;;;2.55;1.70;;;15.90;99.90;;;;;;5093665;28;20473;-46
2023/05/15 01:58:40;;;;;;;1.63;1.20;;;15.90;99.90;;;;;;5094416;28;20040;-47
2023/05/15 02:01:08;;;;;;;1.70;1.08;;;15.90;99.90;;;;;;5094226;28;20413;-47
2023/05/15 02:03:34;;;;;;;1.45;1.10;;;15.90;99.90;;;;;;5093766;28;20460;-44
2023/05/15 02:06:05;;;;;;;1.65;1.13;;;15.90;99.90;;;;;;5099555;28;20059;-45
2023/05/15 02:08:31;;;;;;;1.27;1.00;;;16.00;99.90;;;;;;5041288;28;20068;-44
2023/05/15 02:11:01;;;;;;;0.88;0.88;;;16.00;99.90;;;;;;5088213;28;20034;-46
2023/05/15 02:13:29;;;;;;;1.27;0.80;;;15.80;99.90;;;;;;5093290;28;20066;-46
2023/05/15 02:15:55;;;;;;;0.90;0.77;;;15.70;99.90;;;;;;5097443;28;20442;-44
2023/05/15 02:18:21;;;;;;;0.60;0.60;;;15.70;99.90;;;;;;5095638;28;20043;-47
2023/05/15 02:20:47;;;;;;;0.50;0.50;;;;;;;;;;5076296;28;20036;-47
2023/05/15 02:23:13;;;;;;;2.40;1.33;;;15.60;99.90;;;;;;5092971;28;20463;-45
2023/05/15 02:25:45;;;;;;;0.98;0.93;;;15.50;99.90;;;;;;5103343;28;20111;-46
2023/05/15 02:28:20;;;;;;;1.23;1.00;;;15.60;99.90;;;;;;5094188;28;20036;-47
2023/05/15 02:30:56;;;;;;;3.80;0.95;;;15.60;99.90;;;;;;5072949;28;20032;-47
2023/05/15 02:33:39;;;;;;;1.67;0.77;;;15.60;99.90;;;;;;5093145;28;20036;-46
2023/05/15 02:36:09;;;;;;;1.38;0.80;;;15.60;99.90;;;;;;5090968;28;20043;-44
2023/05/15 02:38:46;;;;;;;1.83;0.90;;;15.70;99.90;;;;;;5093758;28;20039;-46
2023/05/15 02:41:13;;;;;;;1.23;0.90;;;15.70;99.90;;;;;;5094550;28;20040;-47
2023/05/15 02:43:40;;;;;;;0.52;0.52;;;15.70;99.90;;;;;;5096726;28;20056;-46
2023/05/15 02:46:07;;;;;;;1.70;1.33;;;15.60;99.90;;;;;;5089013;28;20098;-47
2023/05/15 02:48:34;;;;;;;1.58;1.17;;;15.60;99.90;;;;;;5101313;28;20443;-45
2023/05/15 02:51:00;;;;;;;2.40;1.02;;;15.60;99.90;;;;;;5093185;28;20032;-47
2023/05/15 02:53:27;;;;;;;1.27;0.93;;;15.60;99.90;;;;;;5092490;28;20085;-47
2023/05/15 02:55:53;;;;;;;1.00;0.90;;;15.70;99.90;;;;;;5099568;28;20031;-45
2023/05/15 02:58:18;;;;;;;1.50;1.35;;;15.70;99.90;;;;;;5094199;28;20036;-48
2023/05/15 03:00:44;;;;;;;1.42;1.15;;;15.60;99.90;;;;;;5079004;28;20491;-44
2023/05/15 03:03:10;;;;;;;1.17;1.08;;;15.70;99.90;;;;;;5090272;28;20490;-46
2023/05/15 03:05:35;;;;;;;5.50;1.02;;;15.80;99.90;;;;;;5039317;28;20040;-46
2023/05/15 03:08:01;;;;;;;1.63;0.80;;;15.70;99.90;;;;;;5085380;28;20038;-45
2023/05/15 03:10:27;;;;;;;1.90;1.00;;;15.70;99.90;;;;;;5072519;28;20044;-47
2023/05/15 03:12:57;;;;;;;1.10;0.98;;;15.70;99.90;;;;;;5098501;28;20035;-46
2023/05/15 03:15:23;;;;;;;1.05;0.73;;;15.70;99.90;;;;;;5093212;28;20028;-47
2023/05/15 03:17:49;;;;;;;0.70;0.70;;;;;;;;;;5093437;28;20104;-47
2023/05/15 03:20:15;;;;;;;1.08;0.88;;;15.60;99.90;;;;;;5093230;28;20028;-47
2023/05/15 03:22:40;;;;;;;0.75;0.60;;;15.60;99.90;;;;;;5065961;28;20039;-45
2023/05/15 03:25:09;;;;;;;0.80;0.60;;;15.60;99.90;;;;;;5099330;28;20030;-46
2023/05/15 03:27:35;;;;;;;0.90;0.73;;;15.50;99.90;;;;;;5100749;28;20028;-46
2023/05/15 03:30:01;;;;;;;2.60;0.95;;;15.50;99.90;;;;;;5035480;28;20033;-47
2023/05/15 03:32:27;;;;;;;0.68;0.68;;;15.60;99.90;;;;;;5094200;28;20038;-47
2023/05/15 03:34:53;;;;;;;0.85;0.70;;;15.60;99.90;;;;;;5092703;28;20479;-46
2023/05/15 03:37:18;;;;;;;1.00;0.90;;;15.70;99.90;;;;;;5074106;28;20053;-48
2023/05/15 03:39:44;;;;;;;0.47;0.47;;;15.70;99.90;;;;;;5093801;28;20113;-50
2023/05/15 03:42:10;;;;;;;1.33;0.90;;;15.70;99.90;;;;;;5094880;28;20047;-45
2023/05/15 03:44:35;;;;;;;0.80;0.80;;;15.70;99.90;;;;;;5073778;28;20063;-47
2023/05/15 03:47:01;;;;;;;0.75;0.75;;;15.80;99.90;;;;;;5092727;28;20033;-45
2023/05/15 03:49:27;;;;;;;0.88;0.68;;;15.90;99.90;;;;;;5100161;28;20051;-48
2023/05/15 03:51:53;;;;;;;0.73;0.68;;;15.90;99.90;;;;;;5076960;28;20085;-44
2023/05/15 03:54:18;;;;;;;0.63;0.60;;;16.00;99.90;;;;;;5073225;28;20040;-45
2023/05/15 03:56:44;;;;;;;0.73;0.65;;;16.00;99.90;;;;;;5094908;28;20028;-47
2023/05/15 03:59:10;;;;;;;0.85;0.57;;;16.10;99.90;;;;;;5092963;28;20048;-44
2023/05/15 04:01:36;;;;;;;0.47;0.47;;;16.20;99.90;;;;;;5093873;28;20028;-45
2023/05/15 04:04:01;;;;;;;0.63;0.63;;;16.20;99.90;;;;;;5088148;28;20032;-46
2023/05/15 04:06:27;;;;;;;0.65;0.45;;;16.30;99.90;;;;;;5091723;28;20047;-45
2023/05/15 04:08:53;;;;;;;0.32;0.32;;;16.30;99.90;;;;;;5086333;28;20118;-44
2023/05/15 04:11:18;;;;;;;0.40;0.40;;;16.40;99.90;;;;;;5091668;28;20028;-46
2023/05/15 04:13:44;;;;;;;0.40;0.40;;;16.40;99.90;;;;;;5061550;28;20548;-45
2023/05/15 04:16:10;;;;;;;0.40;0.40;;;16.40;99.90;;;;;;5078899;28;20962;-46
2023/05/15 04:18:35;;;;;;;0.50;0.47;;;16.60;99.90;;;;;;5095310;28;20032;-43
2023/05/15 04:21:02;;;;;;;0.52;0.52;;;16.60;99.90;;;;;;5093963;28;20047;-45
2023/05/15 04:23:28;;;;;;;0.77;0.60;;;;;;;;;;5074251;28;20044;-45
2023/05/15 04:25:54;;;;;;;0.50;0.50;;;;;;;;;;5100495;28;20067;-44
2023/05/15 04:28:20;;;;;;;0.43;0.43;;;;;;;;;;5088927;28;20036;-45
2023/05/15 04:30:46;;;;;;;0.45;0.45;;;;;;;;;;5094332;28;20471;-44
2023/05/15 04:33:12;;;;;;;0.75;0.70;;;;;;;;;;5087818;28;20036;-47
2023/05/15 04:35:39;;;;;;;0.93;0.73;;;;;;;;;;5083592;28;20028;-44
2023/05/15 04:38:05;;;;;;;0.40;0.40;;;16.60;99.90;;;;;;5099412;28;20067;-45
2023/05/15 04:40:31;;;;;;;0.70;0.63;;;16.90;99.90;;;;;;5090446;28;20487;-45
2023/05/15 04:42:56;;;;;;;0.43;0.43;;;16.90;99.90;;;;;;5095244;28;20020;-46
2023/05/15 04:45:25;;;;;;;0.50;0.43;;;17.00;99.90;;;;;;5093591;28;20070;-45
2023/05/15 04:47:51;;;;;;;0.63;0.45;;;17.00;99.90;;;;;;5081988;28;20054;-46
2023/05/15 04:50:17;;;;;;;0.32;0.32;;;17.10;99.90;;;;;;5088777;28;20115;-47
2023/05/15 04:52:44;;;;;;;0.55;0.55;;;17.10;99.90;;;;;;5089265;28;20069;-48
2023/05/15 04:55:10;;;;;;;0.52;0.32;;;17.20;99.90;;;;;;5092925;28;20460;-47
2023/05/15 04:57:36;;;;;;;0.30;0.30;;;17.20;99.90;;;;;;5092196;28;20107;-46
2023/05/15 05:00:06;;;;;;;0.45;0.45;;;17.20;99.90;;;;;;5094085;28;20035;-48
2023/05/15 05:02:31;;;;;;;0.50;0.50;;;17.20;99.90;;;;;;5029555;28;20128;-45
2023/05/15 05:04:57;;;;;;;0.98;0.60;;;17.30;99.90;;;;;;5088907;28;20123;-46
2023/05/15 05:07:23;;;;;;;0.52;0.40;;;17.40;99.90;;;;;;5093849;28;20023;-45
2023/05/15 05:09:48;;;;;;;0.52;0.50;;;17.60;99.90;;;;;;5095116;28;20028;-45
2023/05/15 05:12:14;;;;;;;1.65;0.57;;;;;;;;;;5099231;28;20040;-48
2023/05/15 05:14:40;;;;;;;0.50;0.50;;;17.70;99.90;;;;;;5091722;28;20028;-45
2023/05/15 05:17:06;;;;;;;0.50;0.50;;;17.80;99.90;;;;;;5086715;28;20479;-47
2023/05/15 05:19:32;;;;;;;0.50;0.40;;;18.00;99.90;;;;;;5063642;28;20068;-46
2023/05/15 05:22:00;;;;;;;1.45;0.55;;;18.00;99.90;;;;;;5073168;28;20033;-47
2023/05/15 05:24:26;;;;;;;0.63;0.43;;;17.90;99.90;;;;;;5067391;28;20072;-48
2023/05/15 05:26:52;;;;;;;0.43;0.32;;;17.90;99.90;;;;;;5068593;28;20111;-48
2023/05/15 05:29:17;;;;;;;0.55;0.38;;;17.50;99.90;;;;;;5062218;28;20071;-48
2023/05/15 05:31:46;;;;;;;0.43;0.43;;;17.20;99.90;;;;;;5078026;28;20027;-46
2023/05/15 05:34:11;;;;;;;0.50;0.50;;;17.20;99.90;;;;;;5009520;28;20073;-47
2023/05/15 05:36:37;;;;;;;0.20;0.20;;;17.30;99.90;;;;;;5010263;28;20985;-46
2023/05/15 05:39:03;;;;;;;0.40;0.40;;;17.30;99.90;;;;;;5003136;28;20574;-49
2023/05/15 05:41:29;;;;;;;0.50;0.45;;;17.50;99.90;;;;;;5012327;28;20098;-47
2023/05/15 05:43:55;;;;;;;19.33;8.40;;;17.30;99.90;;;;;;5008336;28;20409;-48
2023/05/15 05:46:21;;;;;;;5.32;2.88;;;17.30;99.90;;;;;;5009117;28;20034;-48
2023/05/15 05:48:46;;;;;;;1.48;0.82;;;17.30;99.90;;;;;;4965809;28;20132;-48
2023/05/15 05:51:12;;;;;;;2.55;0.95;;;17.40;99.90;;;;;;5037985;28;20045;-45
2023/05/15 05:53:38;;;;;;;3.05;1.60;;;17.40;99.90;;;;;;4987665;28;20049;-46
2023/05/15 05:56:03;;;;;;;1.92;1.10;;;17.60;99.90;;;;;;5019567;28;20080;-49
2023/05/15 05:58:29;;;;;;;1.88;0.98;;;17.60;99.90;;;;;;5000020;28;20400;-45
2023/05/15 06:00:55;;;;;;;1.63;1.00;;;17.70;99.90;;;;;;5045711;28;20036;-48
2023/05/15 06:03:21;;;;;;;1.48;0.70;;;17.80;99.90;;;;;;5038363;28;20044;-46
2023/05/15 06:05:47;;;;;;;0.57;0.50;;;17.90;99.90;;;;;;5041407;28;20052;-48
2023/05/15 06:08:13;;;;;;;0.75;0.60;;;17.80;99.90;;;;;;5039595;28;20539;-49
2023/05/15 06:10:39;;;;;;;0.60;0.60;;;17.90;99.90;;;;;;5051937;28;20037;-46
2023/05/15 06:13:05;;;;;;;0.50;0.50;;;17.90;99.90;;;;;;5040674;28;20044;-46
2023/05/15 06:15:31;;;;;;;1.08;0.80;;;18.00;99.90;;;;;;5092623;28;20523;-49
2023/05/15 06:17:57;;;;;;;0.70;0.70;;;;;;;;;;5092584;28;20038;-46
2023/05/15 06:20:23;;;;;;;1.05;0.95;;;;;;;;;;5045258;28;20097;-46
2023/05/15 06:22:49;;;;;;;0.60;0.52;;;18.30;99.90;;;;;;5071916;28;20514;-46
2023/05/15 06:25:15;;;;;;;1.15;0.80;;;18.40;99.90;;;;;;5091182;28;20032;-47
2023/05/15 06:27:41;;;;;;;1.40;0.88;;;18.30;99.90;;;;;;5088850;28;20024;-48
2023/05/15 06:30:08;;;;;;;1.15;0.63;;;18.40;99.90;;;;;;5097353;28;20020;-46
2023/05/15 06:32:34;;;;;;;0.60;0.57;;;18.50;99.90;;;;;;5100908;28;20075;-46
2023/05/15 06:35:00;;;;;;;0.35;0.35;;;;;;;;;;5098515;28;20028;-48
2023/05/15 06:37:27;;;;;;;0.82;0.57;;;18.50;99.90;;;;;;5092520;28;20024;-46
2023/05/15 06:39:55;;;;;;;2.03;1.20;;;18.30;99.90;;;;;;5091402;28;20452;-47
2023/05/15 06:42:21;;;;;;;2.72;1.58;;;18.10;99.90;;;;;;5093597;28;20494;-48
2023/05/15 06:44:48;;;;;;;1.25;0.90;;;17.60;99.90;;;;;;5099311;28;20132;-47
2023/05/15 06:47:14;;;;;;;1.98;0.80;;;17.60;99.90;;;;;;5087127;28;20115;-45
2023/05/15 06:49:40;;;;;;;1.67;1.08;;;17.30;99.90;;;;;;5097889;28;20127;-45
2023/05/15 06:52:05;;;;;;;1.23;1.00;;;17.10;99.90;;;;;;5040280;28;20031;-47
2023/05/15 06:54:31;;;;;;;0.60;0.60;;;17.10;99.90;;;;;;5075871;28;20090;-48
2023/05/15 06:56:57;;;;;;;0.93;0.68;;;17.20;99.90;;;;;;5092270;28;20020;-48
2023/05/15 06:59:23;;;;;;;0.57;0.57;;;;;;;;;;5090850;28;20027;-46
2023/05/15 07:01:49;;;;;;;0.50;0.50;;;;;;;;;;5076922;28;20043;-48
2023/05/15 07:04:15;;;;;;;0.55;0.45;;;;;;;;;;5092238;28;20028;-46
2023/05/15 07:06:42;;;;;;;0.45;0.45;;;18.30;99.90;;;;;;5073215;28;20086;-46
2023/05/15 07:09:08;;;;;;;0.35;0.35;;;18.20;99.90;;;;;;5091929;28;20115;-48
2023/05/15 07:11:36;;;;;;;0.40;0.40;;;18.20;99.90;;;;;;5093290;28;20110;-48
2023/05/15 07:14:02;;;;;;;1.08;0.63;;;18.40;99.90;;;;;;5085880;28;20141;-48
2023/05/15 07:16:29;;;;;;;0.50;0.50;;;18.60;99.90;;;;;;5090135;28;20024;-46
2023/05/15 07:18:54;;;;;;;0.57;0.50;;;18.60;99.90;;;;;;5091104;28;20039;-46
2023/05/15 07:21:20;;;;;;;1.33;0.60;;;18.60;99.90;;;;;;5087614;28;20055;-49
2023/05/15 07:23:46;;;;;;;0.55;0.55;;;18.40;99.90;;;;;;5091115;28;20016;-47
2023/05/15 07:26:13;;;;;;;0.70;0.57;;;18.60;99.90;;;;;;5090543;28;20684;-48
2023/05/15 07:28:39;;;;;;;0.75;0.60;;;18.70;99.90;;;;;;5092857;28;20040;-45
2023/05/15 07:31:06;;;;;;;0.60;0.60;;;18.80;99.90;;;;;;5070568;28;20533;-48
2023/05/15 07:33:32;;;;;;;0.57;0.57;;;18.60;99.90;;;;;;5093464;28;20387;-45
2023/05/15 07:35:58;;;;;;;0.75;0.75;;;;;;;;;;5091783;28;20111;-48
2023/05/15 07:38:24;;;;;;;0.93;0.73;;;18.90;99.90;;;;;;5091324;28;20035;-48
2023/05/15 07:40:49;;;;;;;1.02;0.73;;;19.10;99.90;;;;;;5042460;28;20396;-49
2023/05/15 07:43:15;;;;;;;1.23;0.75;;;;;;;;;;5090640;28;20035;-51
2023/05/15 07:45:42;;;;;;;0.80;0.60;;;;;;;;;;5090852;28;20035;-50
2023/05/15 07:48:14;;;;;;;0.50;0.50;;;;;;;;;;5090132;28;20147;-48
2023/05/15 07:50:41;;;;;;;3.03;0.88;;;;;;;;;;5091179;28;20044;-49
2023/05/15 07:53:07;;;;;;;0.68;0.60;;;;;;;;;;5095075;28;20054;-49
2023/05/15 07:55:33;;;;;;;1.13;0.73;;;;;;;;;;5090504;28;20064;-47
2023/05/15 07:57:59;;;;;;;1.35;0.45;;;;;;;;;;5092472;28;20058;-48
2023/05/15 08:00:25;;;;;;;0.50;0.50;;;;;;;;;;5050794;28;20032;-50
2023/05/15 08:02:51;;;;;;;0.63;0.52;;;;;;;;;;5060067;28;20050;-48
2023/05/15 08:05:17;;;;;;;0.93;0.75;;;18.50;99.90;;;;;;5078667;28;20124;-47
2023/05/15 08:07:43;;;;;;;0.77;0.70;;;18.70;99.90;;;;;;5078525;28;20428;-47
2023/05/15 08:10:09;;;;;;;0.40;0.40;;;18.80;99.90;;;;;;5091113;28;20440;-47
2023/05/15 08:12:35;;;;;;;0.60;0.60;;;18.70;99.90;;;;;;5083146;28;20075;-48
2023/05/15 08:15:01;;;;;;;1.17;0.73;;;18.50;99.90;;;;;;5066799;28;20047;-49
2023/05/15 08:17:27;;;;;;;0.40;0.40;;;18.50;99.90;;;;;;5086406;28;20074;-49
2023/05/15 08:19:53;;;;;;;0.80;0.70;;;18.50;99.90;;;;;;5069588;28;20047;-49
2023/05/15 08:22:18;;;;;;;0.60;0.50;;;18.50;99.90;;;;;;5089923;28;20123;-52
2023/05/15 08:24:44;;;;;;;0.60;0.60;;;18.50;99.90;;;;;;5090652;28;20123;-49
2023/05/15 08:27:10;;;;;;;0.88;0.80;;;18.40;99.90;;;;;;5096257;27;20103;-50
2023/05/15 08:29:37;;;;;;;0.82;0.77;;;18.60;99.90;;;;;;5094954;28;20390;-51
2023/05/15 08:32:03;;;;;;;0.65;0.65;;;18.40;99.90;;;;;;5088598;28;20543;-53
2023/05/15 08:34:29;;;;;;;0.70;0.70;;;18.40;99.90;;;;;;5017486;28;20458;-52
2023/05/15 08:36:55;;;;;;;1.67;0.80;;;18.40;99.90;;;;;;5088153;28;20027;-58
2023/05/15 08:39:21;;;;;;;0.70;0.65;;;18.40;99.90;;;;;;5086515;28;20058;-49
2023/05/15 08:41:50;;;;;;;1.20;0.90;;;18.40;99.90;;;;;;5086602;28;20438;-51
2023/05/15 08:44:16;;;;;;;0.98;0.77;;;18.40;99.90;;;;;;5091059;28;20127;-53
2023/05/15 08:46:42;;;;;;;0.82;0.60;;;18.40;99.90;;;;;;5083166;28;20031;-53
2023/05/15 08:49:16;;;;;;;0.95;0.85;;;18.20;99.90;;;;;;5077410;28;20403;-54
2023/05/15 08:51:42;;;;;;;0.70;0.65;;;18.30;99.90;;;;;;5084788;28;20105;-51
2023/05/15 08:54:08;;;;;;;2.85;0.70;;;18.40;99.90;;;;;;5074170;28;20484;-57
2023/05/15 08:56:35;;;;;;;0.32;0.32;;;18.50;99.90;;;;;;5086660;28;20036;-49
2023/05/15 08:59:01;;;;;;;0.45;0.45;;;18.70;99.90;;;;;;5087896;28;20047;-51
2023/05/15 09:01:27;;;;;;;0.57;0.45;;;18.70;99.90;;;;;;5087774;28;20107;-52
2023/05/15 09:03:53;;;;;;;0.47;0.47;;;18.60;99.90;;;;;;5042575;28;20040;-55
2023/05/15 09:06:20;;;;;;;2.50;0.77;;;18.30;99.90;;;;;;5082184;28;20296;-52
2023/05/15 09:08:47;;;;;;;0.85;0.68;;;18.30;99.90;;;;;;5083977;28;20024;-53
2023/05/15 09:11:14;;;;;;;1.20;0.85;;;18.40;99.90;;;;;;5086427;28;20036;-49
2023/05/15 09:13:40;;;;;;;1.25;0.70;;;18.50;99.90;;;;;;5094982;28;20028;-54
2023/05/15 09:16:06;;;;;;;0.60;0.60;;;18.40;99.90;;;;;;5085266;28;20024;-53
2023/05/15 09:18:33;;;;;;;0.47;0.47;;;18.50;99.90;;;;;;5072729;28;20097;-50
2023/05/15 09:21:24;;;;;;;1.15;0.80;;;18.50;99.90;;;;;;5067651;28;20106;-52
2023/05/15 09:23:50;;;;;;;0.80;0.60;;;18.70;99.90;;;;;;5084831;28;20368;-51
2023/05/15 09:26:16;;;;;;;0.57;0.57;;;18.60;99.90;;;;;;5090323;28;20293;-50
2023/05/15 09:28:42;;;;;;;0.52;0.52;;;18.80;99.90;;;;;;5069658;28;20046;-54
2023/05/15 09:31:08;;;;;;;1.20;0.82;;;19.00;99.90;;;;;;5083379;28;20034;-53
2023/05/15 09:33:36;;;;;;;0.57;0.55;;;19.00;99.90;;;;;;5079016;28;20037;-53
2023/05/15 09:36:03;;;;;;;0.68;0.68;;;19.00;99.90;;;;;;5089468;28;20024;-53
2023/05/15 09:38:32;;;;;;;0.70;0.68;;;19.00;99.90;;;;;;5089354;28;20075;-50
2023/05/15 09:41:02;;;;;;;0.73;0.73;;;19.00;99.90;;;;;;5090887;28;20024;-52
2023/05/15 09:43:29;;;;;;;1.17;0.80;;;19.10;99.90;;;;;;5076637;28;20088;-51
2023/05/15 09:45:55;;;;;;;1.23;0.80;;;19.30;99.90;;;;;;5092497;28;20036;-50
2023/05/15 09:48:21;;;;;;;2.30;0.88;;;19.80;99.90;;;;;;5093705;28;20051;-49
2023/05/15 09:50:47;;;;;;;0.60;0.60;;;19.50;99.90;;;;;;5081192;28;20044;-51
2023/05/15 09:53:13;;;;;;;1.40;0.93;;;19.60;99.90;;;;;;5094135;28;20047;-53
2023/05/15 09:55:41;;;;;;;1.48;1.10;;;19.50;99.90;;;;;;5091340;28;20391;-52
2023/05/15 09:58:17;;;;;;;1.40;0.85;;;19.80;99.90;;;;;;5089807;28;20036;-51
2023/05/15 10:00:44;;;;;;;1.55;0.80;;;20.00;99.90;;;;;;5090374;28;20024;-52
2023/05/15 10:03:11;;;;;;;1.00;0.80;;;;;;;;;;5094206;28;20115;-52
2023/05/15 10:05:37;;;;;;;1.02;0.90;;;;;;;;;;5091931;28;20032;-50
2023/05/15 10:08:04;;;;;;;1.10;1.00;;;;;;;;;;5093422;28;20032;-51
2023/05/15 10:10:30;;;;;;;2.38;0.80;;;;;;;;;;5087835;28;20418;-53
2023/05/15 10:12:58;;;;;;;1.77;1.33;;;;;;;;;;5093152;28;20494;-53
2023/05/15 10:15:25;;;;;;;1.75;1.15;;;;;;;;;;5090300;28;20367;-53
2023/05/15 10:17:51;;;;;;;2.25;1.23;;;;;;;;;;5093307;28;20016;-51
2023/05/15 10:20:19;;;;;;;1.70;1.40;;;19.80;99.90;;;;;;5093355;28;20024;-51
2023/05/15 10:22:51;;;;;;;1.48;1.20;;;19.80;99.90;;;;;;5088034;28;20036;-50
2023/05/15 10:25:41;;;;;;;1.90;1.50;;;19.70;99.90;;;;;;5090451;28;20024;-50
2023/05/15 10:28:09;;;;;;;1.77;1.52;;;19.50;99.90;;;;;;5088956;28;20024;-51
2023/05/15 10:30:35;;;;;;;1.83;1.38;;;19.60;99.90;;;;;;5092500;28;20479;-50
2023/05/15 10:33:03;;;;;;;2.55;1.90;;;19.80;99.90;;;;;;5075313;28;20417;-53
2023/05/15 10:35:29;;;;;;;1.90;1.40;;;19.60;99.90;;;;;;5090730;28;20029;-52
2023/05/15 10:37:56;;;;;;;2.83;2.15;;;19.60;99.90;;;;;;5094974;28;20035;-51
2023/05/15 10:40:23;;;;;;;2.53;1.85;;;19.80;99.90;;;;;;5088447;28;20032;-50
2023/05/15 10:42:49;;;;;;;2.85;2.05;;;19.90;99.90;;;;;;5092715;28;20028;-52
2023/05/15 10:45:15;;;;;;;2.70;1.77;;;19.90;99.90;;;;;;5070784;28;20039;-50
2023/05/15 10:47:42;;;;;;;2.38;1.77;;;;;;;;;;5091959;28;20393;-52
2023/05/15 10:50:08;;;;;;;2.88;1.85;;;;;;;;;;5086777;28;20028;-54
2023/05/15 10:52:38;;;;;;;3.83;2.53;;;;;;;;;;5053863;28;20040;-52
2023/05/15 10:55:14;;;;;;;2.80;1.85;;;;;;;;;;5090240;28;20478;-52
2023/05/15 10:57:40;;;;;;;3.13;2.40;;;20.40;99.90;;;;;;5092360;28;20036;-50
2023/05/15 11:00:32;;;;;;;3.13;2.20;;;20.50;99.90;;;;;;5089784;28;20039;-49
2023/05/15 11:02:59;;;;;;;3.47;2.38;;;20.50;99.90;;;;;;5087357;28;20028;-50
2023/05/15 11:05:25;;;;;;;3.72;2.55;;;20.50;99.90;;;;;;5087239;28;20032;-50
2023/05/15 11:08:25;;;;;;;3.63;2.70;;;20.50;99.90;;;;;;5105590;28;20032;-50
2023/05/15 11:10:52;;;;;;;7.40;2.75;;;;;;;;;;5072572;28;20043;-51
2023/05/15 11:13:18;;;;;;;4.43;2.40;;;;;;;;;;5091171;28;20487;-53
2023/05/15 11:15:45;;;;;;;3.80;2.67;;;;;;;;;;5088184;28;20028;-50
2023/05/15 11:18:11;;;;;;;4.03;3.00;;;21.00;99.90;;;;;;5085020;28;20040;-51
2023/05/15 11:20:40;;;;;;;4.13;2.80;;;;;;;;;;5089456;28;20036;-52
2023/05/15 11:23:06;;;;;;;3.53;2.38;;;21.40;99.90;;;;;;5086097;28;20384;-52
2023/05/15 11:25:34;;;;;;;6.80;3.28;;;;;;;;;;5065602;28;20036;-54
2023/05/15 11:28:00;;;;;;;5.82;2.67;;;;;;;;;;5084603;28;20024;-51
2023/05/15 11:30:37;;;;;;;8.07;4.40;;;;;;;;;;5091122;28;20027;-49
2023/05/15 11:33:07;;;;;;;14.70;6.60;;;;;;;;;;5089468;28;20028;-53
2023/05/15 11:35:38;;;;;;;10.52;5.80;;;;;;;;;;5092025;28;20526;-53
2023/05/15 11:38:03;;;;;;;6.55;3.80;;;;;;;;;;5091851;28;20020;-53
2023/05/15 11:40:31;;;;;;;5.65;3.45;;;;;;;;;;5102923;28;20505;-55
2023/05/15 11:43:04;;;;;;;14.90;8.13;;;;;;;;;;5091447;28;20476;-51
2023/05/15 11:45:31;;;;;;;6.47;3.40;;;;;;;;;;5091342;28;20032;-54
2023/05/15 11:47:57;;;;;;;7.10;4.20;;;;;;;;;;5088119;28;20047;-56
2023/05/15 11:50:23;;;;;;;5.25;3.45;;;;;;;;;;5089724;28;20024;-56
2023/05/15 11:52:50;;;;;;;5.15;3.45;;;;;;;;;;5090308;28;20032;-53
2023/05/15 11:55:18;;;;;;;9.23;4.25;;;;;;;;;;5090879;28;20059;-55
2023/05/15 11:57:46;;;;;;;6.65;3.80;;;;;;;;;;5088849;28;20030;-55
2023/05/15 12:00:12;;;;;;;4.25;2.67;;;;;;;;;;5085252;28;20045;-52
2023/05/15 12:02:38;;;;;;;5.40;3.58;;;;;;;;;;5084951;28;20027;-56
2023/05/15 12:05:06;;;;;;;6.55;4.15;;;;;;;;;;5101268;28;20141;-55
2023/05/15 12:07:35;;;;;;;7.28;4.00;;;;;;;;;;5106515;28;20398;-57
2023/05/15 12:10:02;;;;;;;5.95;3.47;;;;;;;;;;5103869;28;20039;-55
2023/05/15 12:12:28;;;;;;;6.13;3.47;;;;;;;;;;5109702;28;20032;-51
2023/05/15 12:14:58;;;;;;;5.15;3.70;;;;;;;;;;5098513;28;20082;-51
2023/05/15 12:17:24;;;;;;;4.90;3.47;;;;;;;;;;5104884;28;20063;-52
2023/05/15 12:19:51;;;;;;;6.18;4.03;;;;;;;;;;5060532;28;20503;-56
2023/05/15 12:22:17;;;;;;;6.22;3.70;;;;;;;;;;5102015;28;20055;-54
2023/05/15 12:24:44;;;;;;;4.80;3.50;;;;;;;;;;5099349;28;20040;-51
2023/05/15 12:27:10;;;;;;;5.65;4.07;;;;;;;;;;5093391;28;20048;-53
2023/05/15 12:29:37;;;;;;;6.50;3.75;;;;;;;;;;5096456;28;20118;-51
2023/05/15 12:32:04;;;;;;;5.47;3.95;;;;;;;;;;5101932;28;20101;-50
2023/05/15 12:34:30;;;;;;;6.78;3.83;;;;;;;;;;5066494;28;20047;-54
2023/05/15 12:36:58;;;;;;;6.05;3.53;;;;;;;;;;5089267;28;20036;-50
2023/05/15 12:39:25;;;;;;;7.03;4.07;;;;;;;;;;5067395;28;20040;-49
2023/05/15 12:41:53;;;;;;;6.70;4.03;;;;;;;;;;5089928;28;20028;-55
2023/05/15 12:44:19;;;;;;;8.00;4.25;;;;;;;;;;5086668;28;20048;-58
2023/05/15 12:46:46;;;;;;;4.82;3.70;;;;;;;;;;5072209;28;20025;-53
2023/05/15 12:49:12;;;;;;;6.43;3.65;;;;;;;;;;5070845;28;20040;-56
2023/05/15 12:51:43;;;;;;;6.47;4.03;;;;;;;;;;5030346;28;20312;-51
2023/05/15 12:54:19;;;;;;;5.72;4.18;;;;;;;;;;5067690;28;20024;-53
2023/05/15 12:56:46;;;;;;;6.35;4.15;;;;;;;;;;5069566;28;20079;-54
2023/05/15 12:59:12;;;;;;;6.95;4.25;;;;;;;;;;5056729;28;20072;-50
2023/05/15 13:01:41;;;;;;;5.93;4.38;;;;;;;;;;5062462;28;20040;-54
2023/05/15 13:04:07;;;;;;;4.97;3.97;;;;;;;;;;5062017;28;20038;-52
2023/05/15 13:06:33;;;;;;;8.90;4.80;;;;;;;;;;5061935;28;20053;-48
2023/05/15 13:08:59;;;;;;;7.68;4.78;;;;;;;;;;5059117;28;20091;-50
2023/05/15 13:11:30;;;;;;;8.98;4.95;;;;;;;;;;5069185;28;20079;-55
2023/05/15 13:13:56;;;;;;;9.52;5.32;;;;;;;;;;5064141;28;20488;-52
2023/05/15 13:16:22;;;;;;;7.70;5.10;;;;;;;;;;5063762;28;20051;-52